Santuari del Far - Susqueda





Hora UTC 17:55
Humitat %
Pressió hPa
Pluja 0.0 mm
Velocitat vent km/h
Direcció vent

Dades diàries 2022-01-25



Hora UTC (hivern +1h; estiu +2h)
Temperatura (ºC) Humitat (%) Pressió (hPa) Velocitat vent (km/h) Precipitació (mm)
Hora UTC Aire Humitat Pressió Vel. Dir. Vel. Max Dir. Intent. màx 5 min.
00:05 4.1 53.0 1030.7 0.0 N 0.0 0.0
00:10 3.9 53.0 1030.8 0.0 N 1.6 0.0
00:15 3.8 52.0 1030.9 0.0 N 1.6 0.0
00:20 3.7 52.0 1030.7 0.0 N 1.6 0.0
00:25 3.7 52.0 1030.6 0.0 N 0.0 0.0
00:30 3.5 51.0 1030.5 0.0 N 0.0 0.0
00:35 3.3 51.0 1030.6 0.0 N 1.6 0.0
00:40 3.3 50.0 1030.6 0.0 N 1.6 0.0
00:45 3.4 49.0 1030.5 0.0 N 1.6 0.0
00:50 3.5 48.0 1030.4 0.0 N 1.6 0.0
00:55 3.6 48.0 1030.6 0.0 N 0.0 0.0
01:00 3.5 48.0 1030.5 0.0 N 0.0 0.0
01:05 3.6 47.0 1030.7 0.0 N 0.0 0.0
01:10 3.8 47.0 1030.6 0.0 N 0.0 0.0
01:15 3.9 46.0 1030.7 0.0 N 0.0 0.0
01:20 4.1 44.0 1030.7 0.0 N 0.0 0.0
01:25 4.2 44.0 1030.7 0.0 N 0.0 0.0
01:30 4.3 45.0 1030.8 1.6 N 3.2 0.0
01:35 4.4 44.0 1030.7 0.0 N 3.2 0.0
01:40 4.4 43.0 1030.9 0.0 N 1.6 0.0
01:45 4.4 43.0 1030.8 0.0 N 1.6 0.0
01:50 4.5 42.0 1030.8 0.0 N 1.6 0.0
01:55 4.4 41.0 1030.7 1.6 N 1.6 0.0
02:00 4.5 42.0 1030.7 1.6 N 3.2 0.0
02:05 4.6 45.0 1030.9 0.0 N 3.2 0.0
02:10 4.7 49.0 1030.7 0.0 N 3.2 0.0
02:15 4.6 50.0 1030.8 0.0 N 1.6 0.0
02:20 4.4 47.0 1030.6 1.6 N 1.6 0.0
02:25 4.3 49.0 1030.7 1.6 N 1.6 0.0
02:30 4.3 44.0 1030.7 1.6 N 3.2 0.0
02:35 4.2 44.0 1030.7 1.6 N 3.2 0.0
02:40 4.3 43.0 1030.6 0.0 N 3.2 0.0
02:45 4.3 43.0 1030.4 3.2 N 3.2 0.0
02:50 4.4 40.0 1030.6 0.0 N 3.2 0.0
02:55 4.5 38.0 1030.6 1.6 N 3.2 0.0
03:00 4.6 37.0 1030.6 1.6 N 3.2 0.0
03:05 4.5 36.0 1030.6 0.0 N 1.6 0.0
03:10 4.4 35.0 1030.5 0.0 N 1.6 0.0
03:15 4.3 35.0 1030.4 0.0 N 1.6 0.0
03:20 4.3 34.0 1030.4 0.0 N 1.6 0.0
03:25 4.2 34.0 1030.4 0.0 N 1.6 0.0
03:30 4.2 35.0 1030.4 0.0 N 1.6 0.0
03:35 4.2 34.0 1030.3 0.0 N 0.0 0.0
03:40 4.2 34.0 1030.4 0.0 N 0.0 0.0
03:45 4.2 34.0 1030.4 0.0 N 0.0 0.0
03:50 4.1 35.0 1030.5 1.6 N 1.6 0.0
03:55 4.1 36.0 1030.2 0.0 N 1.6 0.0
04:00 4.2 37.0 1030.3 0.0 N 1.6 0.0
04:05 4.1 37.0 1030.3 0.0 N 1.6 0.0
04:10 3.9 39.0 1030.2 0.0 N 1.6 0.0
04:15 3.8 40.0 1030.3 0.0 N 1.6 0.0
04:20 3.8 40.0 1030.2 0.0 N 0.0 0.0
04:25 3.8 38.0 1030.3 0.0 N 1.6 0.0
04:30 3.9 36.0 1030.1 0.0 N 1.6 0.0
04:35 3.9 37.0 1030.2 0.0 N 1.6 0.0
04:40 3.8 38.0 1030.2 0.0 N 1.6 0.0
04:45 3.7 37.0 1030.2 0.0 N 1.6 0.0
04:50 3.6 37.0 1030.2 0.0 N 0.0 0.0
04:55 3.4 37.0 1030.3 0.0 N 0.0 0.0
05:00 3.4 36.0 1030.2 0.0 N 0.0 0.0
05:05 3.6 37.0 1030.2 0.0 N 0.0 0.0
05:05 3.6 37.0 1030.2 0.0 N 0.0 0.0
05:15 0.0
05:20 0.0
05:25 0.0
05:30 0.0
05:35 0.0
05:40 0.0
05:45 0.0
05:50 0.0
05:55 0.0
06:00 0.0
06:05 0.0
06:10 0.0
06:15 0.0
06:20 0.0
06:25 0.0
06:30 0.0
06:35 0.0
06:40 0.0
06:45 0.0
06:50 0.0
06:55 0.0
07:00 0.0
07:05 0.0
07:10 0.0
07:15 0.0
07:20 0.0
07:25 0.0
07:30 0.0
07:35 0.0
07:40 0.0
07:45 0.0
07:50 0.0
07:55 0.0
08:00 0.0
08:05 0.0
08:10 5.6 31.0 1031.0 3.2 N 4.8 0.0
08:20 5.8 31.0 1031.1 3.2 N 4.8 0.0
08:25 5.8 33.0 1031.0 1.6 N 3.2 0.0
08:30 5.8 32.0 1030.9 1.6 N 4.8 0.0
08:35 5.9 32.0 1031.0 3.2 N 4.8 0.0
08:40 6.1 33.0 1031.3 0.0 N 4.8 0.0
08:45 6.3 32.0 1031.2 1.6 N 3.2 0.0
08:50 6.6 32.0 1031.2 0.0 N 3.2 0.0
08:55 6.9 34.0 1031.2 0.0 N 3.2 0.0
09:00 0.0
09:05 0.0
09:10 0.0
09:15 7.7 34.0 1031.6 3.2 N 4.8 0.0
09:20 7.6 34.0 1031.0 1.6 N 4.8 0.0
09:25 7.6 35.0 1031.0 1.6 N 4.8 0.0
09:30 7.5 36.0 1031.1 1.6 N 4.8 0.0
09:35 7.5 37.0 1031.0 3.2 N 6.4 0.0
09:40 7.5 32.0 1031.1 1.6 N 6.4 0.0
09:45 7.6 32.0 1031.1 3.2 N 4.8 0.0
09:50 7.6 38.0 1031.3 3.2 N 3.2 0.0
09:55 7.8 39.0 1031.3 1.6 N 3.2 0.0
10:00 7.9 39.0 1031.4 1.6 N 3.2 0.0
10:05 8.2 36.0 1031.5 1.6 N 3.2 0.0
10:10 8.6 40.0 1031.5 3.2 N 4.8 0.0
10:15 8.4 41.0 1031.6 1.6 N 6.4 0.0
10:20 8.2 44.0 1031.6 3.2 N 6.4 0.0
10:25 8.1 43.0 1031.5 1.6 N 6.4 0.0
10:30 8.2 46.0 1031.6 3.2 N 6.4 0.0
10:35 8.2 47.0 1031.5 1.6 N 4.8 0.0
10:40 8.3 47.0 1031.6 1.6 N 4.8 0.0
10:45 8.4 46.0 1031.6 3.2 N 4.8 0.0
10:50 8.6 46.0 1031.5 1.6 N 4.8 0.0
10:55 8.7 45.0 1031.4 1.6 N 4.8 0.0
11:00 8.7 48.0 1031.6 4.8 N 4.8 0.0
11:05 8.8 50.0 1031.5 1.6 N 6.4 0.0
11:10 8.8 50.0 1031.5 1.6 N 6.4 0.0
11:15 8.9 49.0 1031.5 3.2 N 4.8 0.0
11:20 9.1 48.0 1031.4 1.6 N 4.8 0.0
11:25 9.3 47.0 1031.5 1.6 N 8.0 0.0
11:30 9.5 46.0 1031.3 0.0 N 8.0 0.0
11:35 9.7 47.0 1031.3 1.6 N 6.4 0.0
11:40 10.0 47.0 1031.1 1.6 N 4.8 0.0
11:45 10.2 42.0 1031.2 6.4 N 9.7 0.0
11:50 10.2 44.0 1031.1 1.6 N 9.7 0.0
11:55 10.1 42.0 1031.0 1.6 N 8.0 0.0
12:00 10.2 45.0 1031.1 3.2 N 8.0 0.0
12:05 10.2 44.0 1031.0 3.2 N 6.4 0.0
12:10 10.2 45.0 1030.9 4.8 N 6.4 0.0
12:15 10.3 44.0 1030.9 1.6 N 6.4 0.0
12:20 10.6 43.0 1030.8 4.8 N 6.4 0.0
12:25 10.5 45.0 1030.8 3.2 N 6.4 0.0
12:30 10.6 45.0 1030.8 3.2 N 6.4 0.0
12:35 10.7 44.0 1030.8 3.2 N 6.4 0.0
12:40 10.8 43.0 1030.7 0.0 N 6.4 0.0
12:45 11.0 42.0 1030.7 3.2 N 4.8 0.0
12:50 11.2 40.0 1030.6 1.6 N 4.8 0.0
12:55 11.4 40.0 1030.4 1.6 N 4.8 0.0
13:00 11.5 40.0 1030.4 4.8 N 4.8 0.0
13:05 11.6 38.0 1030.4 1.6 N 8.0 0.0
13:10 11.6 39.0 1030.3 0.0 N 8.0 0.0
13:15 11.6 39.0 1030.2 1.6 N 3.2 0.0
13:20 11.6 40.0 1030.2 0.0 N 4.8 0.0
13:25 11.5 40.0 1030.2 3.2 N 6.4 0.0
13:30 11.5 40.0 1030.2 3.2 N 6.4 0.0
13:35 11.6 41.0 1030.2 1.6 N 4.8 0.0
13:40 11.7 39.0 1030.1 3.2 N 4.8 0.0
13:45 11.7 39.0 1029.9 1.6 N 6.4 0.0
13:50 11.5 41.0 1029.9 4.8 N 6.4 0.0
13:55 11.4 44.0 1029.9 1.6 N 6.4 0.0
14:00 11.4 44.0 1029.9 1.6 N 4.8 0.0
14:05 11.5 43.0 1029.8 0.0 N 4.8 0.0
14:10 11.6 43.0 1029.9 1.6 N 4.8 0.0
14:15 11.6 45.0 1029.9 3.2 N 4.8 0.0
14:20 11.4 47.0 1029.8 0.0 N 6.4 0.0
14:25 11.5 48.0 1029.9 6.4 N 6.4 0.0
14:30 11.4 47.0 1030.0 4.8 N 6.4 0.0
14:35 11.3 47.0 1030.0 3.2 N 6.4 0.0
14:40 11.2 47.0 1030.0 1.6 N 6.4 0.0
14:45 11.2 48.0 1029.9 1.6 N 4.8 0.0
14:50 11.2 50.0 1030.0 1.6 N 4.8 0.0
14:55 11.2 50.0 1029.9 0.0 N 4.8 0.0
15:00 11.0 49.0 1029.9 1.6 N 3.2 0.0
15:05 10.9 48.0 1029.9 3.2 N 4.8 0.0
15:10 10.9 49.0 1029.9 1.6 N 4.8 0.0
15:15 10.8 51.0 1029.9 1.6 N 6.4 0.0
15:20 10.7 50.0 1029.9 3.2 N 4.8 0.0
15:25 10.4 50.0 1029.9 0.0 N 4.8 0.0
15:30 10.2 51.0 1029.9 1.6 N 4.8 0.0
15:35 10.1 52.0 1030.0 1.6 N 4.8 0.0
15:40 9.9 55.0 1029.9 1.6 N 4.8 0.0
15:45 9.8 56.0 1029.8 1.6 N 4.8 0.0
15:50 9.7 55.0 1029.9 1.6 N 4.8 0.0
15:55 9.6 57.0 1030.1 1.6 N 4.8 0.0
16:00 9.3 57.0 1029.9 1.6 N 3.2 0.0
16:05 9.1 58.0 1030.0 0.0 N 4.8 0.0
16:10 8.7 59.0 1030.1 0.0 N 4.8 0.0
16:15 8.4 60.0 1030.2 1.6 N 3.2 0.0
16:20 8.3 61.0 1030.3 4.8 N 4.8 0.0
16:25 8.1 59.0 1030.1 0.0 N 6.4 0.0
16:30 7.9 59.0 1030.3 0.0 N 6.4 0.0
16:35 7.7 58.0 1030.2 1.6 N 4.8 0.0
16:40 7.6 58.0 1030.4 0.0 N 3.2 0.0
16:45 7.5 59.0 1030.3 0.0 N 4.8 0.0
16:50 7.3 59.0 1030.3 0.0 N 3.2 0.0
16:55 6.9 59.0 1030.3 0.0 N 3.2 0.0
17:00 6.6 59.0 1030.5 1.6 N 3.2 0.0
17:05 6.3 59.0 1030.3 1.6 N 3.2 0.0
17:10 6.0 60.0 1030.3 1.6 N 3.2 0.0
17:15 5.8 59.0 1030.5 4.8 N 4.8 0.0
17:20 5.7 59.0 1030.3 1.6 N 6.4 0.0
17:25 5.6 56.0 1030.3 0.0 N 4.8 0.0
17:30 5.4 55.0 1030.2 0.0 N 3.2 0.0
17:35 5.1 54.0 1030.3 0.0 N 3.2 0.0
17:40 4.9 54.0 1030.2 1.6 N 1.6 0.0
17:45 4.8 54.0 1030.6 1.6 N 3.2 0.0
17:50 0.0
17:55 0.0
Màxima 11.7 61.0 1031.6 6.4 N 9.7 0.0
Mínima 3.2 31.0 1029.8
Total 0.0